This is the latest recevied weather packets stored in our database for station/object ENBN. If no packets are shown the sender has not sent any weather packets the latest 10 day(s).
| Time | Temp. | Humidity | Pressure | Rain* | Wind** | Luminosity | Snow |
|---|---|---|---|---|---|---|---|
| 1778025787 | 1.67° C | 93% | 1005 hPa | - | - | - | - |
| 1778023987 | 0.56° C | 93% | 1006 hPa | - | - | - | - |
| 1778022187 | 1.67° C | 93% | 1006 hPa | - | - | - | - |
| 1778020387 | 1.67° C | 93% | 1005 hPa | - | - | - | - |
| 1778018587 | 1.67° C | 93% | 1005 hPa | - | - | - | - |
| 1778016786 | 2.78° C | 86% | 1005 hPa | - | - | - | - |
| 1778014986 | 1.67° C | 93% | 1005 hPa | - | - | - | - |
| 1778013186 | 2.78° C | 86% | 1005 hPa | - | - | - | - |
| 1778011386 | 2.78° C | 93% | 1005 hPa | - | - | - | - |
| 1778009586 | 2.78° C | 86% | 1005 hPa | - | - | - | - |
| 1778007786 | 2.78° C | 93% | 1005 hPa | - | - | - | - |
| 1778005986 | 1.67° C | 93% | 1005 hPa | - | - | - | - |
| 1778004187 | 2.78° C | 80% | 1005 hPa | - | - | - | - |
| 1778002387 | 2.78° C | 80% | 1005 hPa | - | - | - | - |
| 1778000587 | 3.89° C | 80% | 1005 hPa | - | - | - | - |
| 1777998787 | 5° C | 70% | 1005 hPa | - | - | - | - |
| 1777996987 | 5° C | 70% | 1005 hPa | - | - | - | - |
| 1777995187 | 5° C | 75% | 1005 hPa | - | - | - | - |
| 1777993386 | 2.78° C | 80% | 1005 hPa | - | - | - | - |
| 1777991587 | 5° C | 70% | 1005 hPa | - | - | - | - |
| 1777989787 | 5° C | 65% | 1004 hPa | - | - | - | - |
| 1777987987 | 5.56° C | 60% | 1004 hPa | - | - | - | - |
| 1777986187 | 5.56° C | 65% | 1005 hPa | - | - | - | - |
| 1777984386 | 5° C | 70% | 1004 hPa | - | - | - | - |
| 1777982586 | 5.56° C | 60% | 1004 hPa | - | - | - | - |
* Rain since midnight (hover to see other rain measurements)
** Current wind speed in m/s (hover to see current wind gust speed)